Time;durP1;ratioP1;P1;durP2;ratioP2;P2;SDS_P1;SDS_P2;PMS_P1;PMS_P2;Temp;Humidity;BMP_temperature;BMP_pressure;BME280_temperature;BME280_humidity;BME280_pressure;Samples;Min_cycle;Max_cycle;Signal;HPM_P1;HPM_P2
2022/09/23 00:00:46;;;;;;;5.10;3.30;;;;;;;10.92;100.00;101692.94;5274807;28;20028;-70
2022/09/23 00:03:20;;;;;;;6.90;4.00;;;;;;;10.89;100.00;101689.72;5274853;28;20120;-70
2022/09/23 00:06:00;;;;;;;6.97;3.70;;;;;;;10.98;100.00;101689.03;5273723;28;20504;-70
2022/09/23 00:08:32;;;;;;;7.57;3.67;;;;;;;10.85;100.00;101694.34;5275359;28;20063;-70
2022/09/23 00:11:12;;;;;;;6.97;4.05;;;;;;;11.00;100.00;101696.81;5269997;28;20102;-70
2022/09/23 00:13:45;;;;;;;7.68;4.50;;;;;;;10.87;100.00;101692.44;5270241;28;20036;-70
2022/09/23 00:16:21;;;;;;;8.90;4.78;;;;;;;10.95;100.00;101690.09;5269337;28;20032;-70
2022/09/23 00:18:53;;;;;;;8.55;4.15;;;;;;;10.85;100.00;101689.09;5274377;28;20562;-70
2022/09/23 00:21:24;;;;;;;8.20;4.20;;;;;;;10.84;100.00;101687.44;5274333;28;20163;-70
2022/09/23 00:23:55;;;;;;;5.78;4.03;;;;;;;10.85;100.00;101680.41;5272982;28;20024;-70
2022/09/23 00:26:27;;;;;;;6.57;4.45;;;;;;;10.81;100.00;101684.19;5271801;28;20115;-70
2022/09/23 00:28:58;;;;;;;6.50;4.40;;;;;;;10.78;100.00;101680.00;5271831;28;20035;-70
2022/09/23 00:31:30;;;;;;;6.88;4.35;;;;;;;10.74;100.00;101683.78;5271091;28;20055;-70
2022/09/23 00:34:02;;;;;;;7.57;4.97;;;;;;;10.75;100.00;101674.13;5256831;28;20029;-70
2022/09/23 00:36:33;;;;;;;7.95;4.97;;;;;;;10.71;100.00;101663.03;5273764;28;20086;-70
2022/09/23 00:39:04;;;;;;;6.57;5.32;;;;;;;10.65;100.00;101666.13;5271702;28;20055;-69
2022/09/23 00:41:36;;;;;;;8.23;6.53;;;;;;;10.65;100.00;101664.34;5273720;28;20477;-70
2022/09/23 00:44:43;;;;;;;7.28;5.50;;;;;;;10.91;100.00;101665.06;5273503;28;20478;-69
2022/09/23 00:47:31;;;;;;;9.57;5.65;;;;;;;10.70;100.00;101662.22;5271029;28;20033;-69
2022/09/23 00:50:11;;;;;;;7.80;6.00;;;;;;;10.65;100.00;101661.72;5271258;28;20032;-69
2022/09/23 00:52:44;;;;;;;9.35;5.95;;;;;;;10.54;100.00;101664.25;5273622;28;20032;-69
2022/09/23 00:55:25;;;;;;;10.30;6.27;;;;;;;10.58;100.00;101662.25;5269094;28;20024;-69
2022/09/23 00:57:59;;;;;;;8.68;5.65;;;;;;;10.52;100.00;101663.53;5271119;28;20298;-69
2022/09/23 01:00:32;;;;;;;9.32;6.15;;;;;;;10.47;100.00;101663.84;5270306;28;20024;-69
2022/09/23 01:03:06;;;;;;;5.97;5.38;;;;;;;10.49;100.00;101655.88;5267741;28;20036;-69
2022/09/23 01:05:38;;;;;;;7.93;5.80;;;;;;;10.44;100.00;101664.06;5271532;28;20032;-69
2022/09/23 01:08:13;;;;;;;8.27;5.60;;;;;;;10.45;100.00;101662.28;5272711;28;20025;-69
2022/09/23 01:10:44;;;;;;;7.95;5.50;;;;;;;10.40;100.00;101662.63;5271799;28;20030;-69
2022/09/23 01:13:25;;;;;;;8.13;6.13;;;;;;;10.41;100.00;101655.59;5255413;28;20381;-69
2022/09/23 01:16:01;;;;;;;6.95;5.93;;;;;;;10.47;100.00;101658.63;5271621;28;20028;-69
2022/09/23 01:19:04;;;;;;;8.85;5.85;;;;;;;10.65;100.00;101650.41;5255784;28;20027;-68
2022/09/23 01:22:03;;;;;;;6.82;5.55;;;;;;;10.46;100.00;101658.75;5272969;28;20099;-69
2022/09/23 01:24:58;;;;;;;10.30;6.18;;;;;;;10.47;100.00;101653.38;5270701;28;20037;-69
2022/09/23 01:28:04;;;;;;;10.50;6.13;;;;;;;10.57;100.00;101648.31;5273414;28;20029;-69
2022/09/23 01:30:45;;;;;;;9.80;6.30;;;;;;;10.41;100.00;101650.34;5272263;28;20033;-69
2022/09/23 01:33:19;;;;;;;7.45;6.65;;;;;;;10.30;100.00;101648.50;5270503;28;20162;-68
2022/09/23 01:36:17;;;;;;;8.93;6.60;;;;;;;10.46;100.00;101651.72;5275367;28;20021;-69
2022/09/23 01:39:12;;;;;;;8.07;6.68;;;;;;;10.22;100.00;101641.13;5273395;28;20036;-69
2022/09/23 01:41:55;;;;;;;8.70;6.38;;;;;;;10.20;100.00;101648.28;5259401;28;20045;-69
2022/09/23 01:44:45;;;;;;;;;;;;;;;10.85;100.00;101641.91;5270750;28;20072;-69
2022/09/23 01:47:25;;;;;;;9.40;6.55;;;;;;;10.31;100.00;101646.72;5272505;28;19916;-69
2022/09/23 01:50:02;;;;;;;8.63;7.72;;;;;;;10.24;100.00;101644.50;5273443;28;20140;-69
2022/09/23 01:52:43;;;;;;;8.95;7.03;;;;;;;10.22;100.00;101637.69;5273614;28;20029;-69
2022/09/23 01:55:28;;;;;;;9.57;7.60;;;;;;;10.28;100.00;101634.69;5274758;28;20474;-69
2022/09/23 01:58:07;;;;;;;8.57;7.28;;;;;;;10.19;100.00;101640.53;5275226;28;20024;-69
2022/09/23 02:00:42;;;;;;;13.27;7.03;;;;;;;10.21;100.00;101646.50;5263686;28;20081;-69
2022/09/23 02:03:18;;;;;;;9.55;7.63;;;;;;;10.17;100.00;101645.88;5274705;28;20029;-69
2022/09/23 02:05:57;;;;;;;10.90;7.10;;;;;;;10.28;100.00;101637.31;5272330;28;20024;-69
2022/09/23 02:08:38;;;;;;;9.02;7.28;;;;;;;10.27;100.00;101634.81;5273684;28;20029;-68
2022/09/23 02:11:14;;;;;;;10.10;7.63;;;;;;;10.17;100.00;101630.16;5273253;28;20047;-69
2022/09/23 02:13:48;;;;;;;10.63;7.53;;;;;;;10.21;100.00;101630.78;5272327;28;20513;-69
2022/09/23 02:16:28;;;;;;;13.65;7.90;;;;;;;10.30;100.00;101629.31;5273461;28;20042;-69
2022/09/23 02:19:25;;;;;;;9.18;7.47;;;;;;;10.40;100.00;101630.34;5269966;28;20032;-69
2022/09/23 02:22:07;;;;;;;8.75;6.55;;;;;;;10.26;100.00;101618.22;5287439;22;20061;-70
2022/09/23 02:24:38;;;;;;;10.35;7.85;;;;;;;10.12;100.00;101619.19;5228415;28;20044;-70
2022/09/23 02:27:23;;;;;;;10.00;8.68;;;;;;;10.20;100.00;101618.66;5251031;28;20025;-70
2022/09/23 02:30:10;;;;;;;9.52;7.82;;;;;;;10.31;100.00;101620.53;5258542;28;20029;-70
2022/09/23 02:32:57;;;;;;;10.32;8.38;;;;;;;10.25;100.00;101613.94;5254711;28;20028;-70
2022/09/23 02:35:52;;;;;;;10.35;8.43;;;;;;;10.36;100.00;101606.16;5252217;28;20502;-70
2022/09/23 02:38:39;;;;;;;12.65;7.88;;;;;;;10.25;100.00;101608.69;5255738;28;20029;-70
2022/09/23 02:41:35;;;;;;;12.40;8.23;;;;;;;10.22;100.00;101601.84;5245353;28;20093;-70
2022/09/23 02:44:11;;;;;;;9.77;8.45;;;;;;;10.17;100.00;101598.75;5245566;28;20052;-70
2022/09/23 02:46:43;;;;;;;8.82;7.93;;;;;;;10.05;100.00;101588.31;5257052;28;20025;-70
2022/09/23 02:49:22;;;;;;;10.80;8.18;;;;;;;10.14;100.00;101590.28;5251979;28;20060;-70
2022/09/23 02:51:53;;;;;;;13.52;8.15;;;;;;;9.97;100.00;101584.44;5251832;28;20090;-70
2022/09/23 02:54:27;;;;;;;12.07;7.97;;;;;;;9.98;100.00;101585.28;5237161;28;20444;-70
2022/09/23 02:57:01;;;;;;;9.55;8.32;;;;;;;9.93;100.00;101590.84;5255152;28;20033;-70
2022/09/23 02:59:34;;;;;;;11.25;8.73;;;;;;;9.90;100.00;101590.22;5255988;28;20032;-70
2022/09/23 03:02:29;;;;;;;12.25;8.50;;;;;;;10.08;100.00;101580.25;5249656;28;20047;-70
2022/09/23 03:05:22;;;;;;;12.00;9.30;;;;;;;10.06;100.00;101582.13;5257096;28;20047;-70
2022/09/23 03:08:24;;;;;;;9.75;8.38;;;;;;;10.14;100.00;101577.19;5253240;28;20033;-70
2022/09/23 03:11:10;;;;;;;9.48;8.48;;;;;;;9.99;100.00;101585.16;5252028;28;20033;-70
2022/09/23 03:13:45;;;;;;;10.52;8.38;;;;;;;9.89;100.00;101576.31;5252884;28;20064;-70
2022/09/23 03:16:49;;;;;;;13.00;8.88;;;;;;;10.10;100.00;101575.72;5251277;28;20021;-70
2022/09/23 03:19:36;;;;;;;11.20;9.30;;;;;;;10.01;100.00;101571.97;5255976;28;20068;-70
2022/09/23 03:22:20;;;;;;;9.27;8.10;;;;;;;9.96;100.00;101574.94;5251647;28;20049;-70
2022/09/23 03:24:58;;;;;;;10.60;8.70;;;;;;;9.86;100.00;101570.44;5252082;28;20390;-70
2022/09/23 03:27:33;;;;;;;9.68;8.18;;;;;;;9.88;100.00;101565.94;5252556;28;20048;-70
2022/09/23 03:30:06;;;;;;;9.40;7.80;;;;;;;9.88;100.00;101566.75;5254410;28;20032;-70
2022/09/23 03:32:40;;;;;;;8.73;7.82;;;;;;;9.88;100.00;101564.13;5231050;28;20033;-70
2022/09/23 03:35:13;;;;;;;9.93;7.93;;;;;;;9.86;100.00;101563.44;5253136;28;20411;-70
2022/09/23 03:38:08;;;;;;;13.93;8.25;;;;;;;10.13;100.00;101565.03;5251002;28;20024;-70
2022/09/23 03:40:46;;;;;;;10.00;8.40;;;;;;;9.89;100.00;101571.06;5248314;28;20025;-70
2022/09/23 03:43:17;;;;;;;9.55;7.22;;;;;;;9.81;100.00;101569.91;5252773;28;20589;-70
2022/09/23 03:45:52;;;;;;;12.15;8.07;;;;;;;9.89;100.00;101567.63;5255735;28;20120;-70
2022/09/23 03:48:24;;;;;;;9.40;8.02;;;;;;;9.74;100.00;101566.91;5248747;28;20034;-70
2022/09/23 03:50:55;;;;;;;10.35;7.63;;;;;;;9.70;100.00;101562.84;5249029;28;20436;-70
2022/09/23 03:53:26;;;;;;;9.23;8.23;;;;;;;9.68;100.00;101556.88;5251407;28;20062;-71
2022/09/23 03:55:57;;;;;;;10.82;7.72;;;;;;;9.68;100.00;101560.31;5249717;28;20029;-70
2022/09/23 03:58:29;;;;;;;10.40;7.55;;;;;;;9.67;100.00;101560.44;5250215;28;20056;-71
2022/09/23 04:01:00;;;;;;;9.05;7.80;;;;;;;9.64;100.00;101561.47;5244956;28;20135;-70
2022/09/23 04:03:31;;;;;;;9.65;7.53;;;;;;;9.63;100.00;101551.97;5252845;28;20035;-70
2022/09/23 04:06:02;;;;;;;9.23;7.47;;;;;;;9.60;100.00;101557.41;5248108;28;20074;-70
2022/09/23 04:08:34;;;;;;;9.30;7.35;;;;;;;9.55;100.00;101554.28;5250719;28;20024;-70
2022/09/23 04:11:05;;;;;;;9.90;7.88;;;;;;;9.56;100.00;101545.47;5255196;28;20033;-70
2022/09/23 04:13:36;;;;;;;10.13;8.15;;;;;;;9.55;100.00;101553.44;5255051;28;20024;-70
2022/09/23 04:16:08;;;;;;;10.68;8.15;;;;;;;9.51;100.00;101544.97;5255056;28;20056;-70
2022/09/23 04:18:39;;;;;;;10.48;7.97;;;;;;;9.46;100.00;101553.09;5253488;28;20033;-70
2022/09/23 04:21:10;;;;;;;10.38;8.50;;;;;;;9.45;100.00;101546.22;5251990;28;20021;-70
2022/09/23 04:23:42;;;;;;;9.32;7.57;;;;;;;9.46;100.00;101552.28;5235031;28;20037;-70
2022/09/23 04:26:13;;;;;;;7.97;7.18;;;;;;;9.50;100.00;101554.56;5250952;28;20033;-70
2022/09/23 04:28:48;;;;;;;10.30;7.78;;;;;;;9.49;100.00;101559.91;5255228;28;20032;-70
2022/09/23 04:31:22;;;;;;;12.32;7.50;;;;;;;9.39;100.00;101556.25;5249036;28;20033;-70
2022/09/23 04:33:54;;;;;;;8.75;7.75;;;;;;;9.39;100.00;101551.84;5250516;28;20025;-70
2022/09/23 04:36:26;;;;;;;9.88;7.65;;;;;;;9.37;100.00;101548.50;5255668;28;20021;-70
2022/09/23 04:38:57;;;;;;;8.00;6.93;;;;;;;9.41;100.00;101543.91;5254179;28;20052;-70
2022/09/23 04:41:29;;;;;;;7.75;6.95;;;;;;;9.37;100.00;101547.69;5249640;28;20509;-70
2022/09/23 04:44:00;;;;;;;8.55;7.65;;;;;;;9.33;100.00;101541.00;5252593;28;20073;-70
2022/09/23 04:46:32;;;;;;;10.05;7.07;;;;;;;9.38;100.00;101550.19;5251020;28;20037;-70
2022/09/23 04:49:04;;;;;;;8.95;7.55;;;;;;;9.39;100.00;101549.22;5253617;28;20524;-70
2022/09/23 04:51:36;;;;;;;8.73;6.97;;;;;;;9.34;100.00;101543.50;5252768;28;20036;-70
2022/09/23 04:54:08;;;;;;;10.05;7.43;;;;;;;9.39;100.00;101537.94;5254098;28;20324;-70
2022/09/23 04:56:40;;;;;;;9.50;7.78;;;;;;;9.38;100.00;101536.28;5250785;28;20037;-70
2022/09/23 04:59:11;;;;;;;8.88;7.88;;;;;;;9.34;100.00;101529.59;5249151;28;20565;-70
2022/09/23 05:01:43;;;;;;;8.38;7.45;;;;;;;9.35;100.00;101523.41;5250453;28;20083;-70
2022/09/23 05:04:14;;;;;;;8.80;7.32;;;;;;;9.37;100.00;101521.53;5250306;28;20037;-70
2022/09/23 05:06:45;;;;;;;9.55;7.47;;;;;;;9.40;100.00;101527.38;5251802;28;20020;-70
2022/09/23 05:09:17;;;;;;;10.45;7.15;;;;;;;9.38;100.00;101526.66;5250719;28;20035;-70
2022/09/23 05:11:48;;;;;;;9.63;7.30;;;;;;;9.34;100.00;101525.19;5251588;28;20119;-70
2022/09/23 05:14:19;;;;;;;7.60;6.75;;;;;;;9.38;100.00;101526.66;5252845;28;20009;-70
2022/09/23 05:16:51;;;;;;;10.13;7.47;;;;;;;9.40;100.00;101534.41;5252968;28;20032;-70
2022/09/23 05:19:22;;;;;;;9.48;7.13;;;;;;;9.42;100.00;101530.72;5250398;28;20050;-70
2022/09/23 05:21:54;;;;;;;8.27;6.82;;;;;;;9.42;100.00;101532.50;5247853;28;20052;-70
2022/09/23 05:24:26;;;;;;;8.90;6.57;;;;;;;9.44;100.00;101536.69;5253194;28;20481;-70
2022/09/23 05:26:57;;;;;;;9.48;7.20;;;;;;;9.37;100.00;101527.59;5252204;28;20487;-70
2022/09/23 05:29:29;;;;;;;8.23;6.75;;;;;;;9.43;100.00;101536.78;5252046;28;20039;-70
2022/09/23 05:32:00;;;;;;;9.63;6.93;;;;;;;9.52;100.00;101543.19;5250748;28;20028;-70
2022/09/23 05:34:31;;;;;;;7.65;6.65;;;;;;;9.53;100.00;101545.69;5247877;28;20028;-70
2022/09/23 05:37:04;;;;;;;10.20;6.43;;;;;;;9.56;100.00;101550.69;5250373;28;20029;-70
2022/09/23 05:39:35;;;;;;;7.10;6.13;;;;;;;9.58;100.00;101542.75;5252037;28;20036;-71
2022/09/23 05:42:07;;;;;;;10.75;6.70;;;;;;;9.62;100.00;101546.81;5253475;28;20032;-70
2022/09/23 05:44:38;;;;;;;9.52;7.13;;;;;;;9.67;100.00;101548.19;5251169;28;20031;-71
2022/09/23 05:47:09;;;;;;;10.75;6.28;;;;;;;9.70;100.00;101552.38;5248854;28;20122;-71
2022/09/23 05:49:40;;;;;;;10.75;6.45;;;;;;;9.71;100.00;101549.63;5249461;28;20021;-71
2022/09/23 05:52:12;;;;;;;9.20;6.55;;;;;;;9.76;100.00;101551.94;5252347;28;20025;-70
2022/09/23 05:54:43;;;;;;;11.10;6.70;;;;;;;9.79;100.00;101554.34;5250568;28;20040;-71
2022/09/23 05:57:14;;;;;;;9.88;6.43;;;;;;;9.82;100.00;101554.13;5250640;28;20024;-71
2022/09/23 05:59:46;;;;;;;7.82;6.55;;;;;;;9.86;100.00;101560.81;5251025;28;20021;-71
2022/09/23 06:02:17;;;;;;;10.27;6.72;;;;;;;9.89;100.00;101560.59;5247726;28;20036;-71
2022/09/23 06:04:49;;;;;;;12.10;7.00;;;;;;;9.95;100.00;101557.53;5251827;28;20481;-71
2022/09/23 06:07:20;;;;;;;11.52;7.03;;;;;;;9.97;100.00;101553.03;5254572;28;20035;-71
2022/09/23 06:09:52;;;;;;;10.45;7.00;;;;;;;9.99;100.00;101548.50;5254186;28;20032;-70
2022/09/23 06:12:24;;;;;;;9.63;7.57;;;;;;;10.05;100.00;101552.50;5250021;28;20067;-71
2022/09/23 06:14:55;;;;;;;10.93;6.72;;;;;;;10.10;100.00;101557.41;5252852;28;20044;-71
2022/09/23 06:17:26;;;;;;;8.43;6.90;;;;;;;10.13;100.00;101550.16;5257137;28;20104;-70
2022/09/23 06:19:58;;;;;;;9.30;7.00;;;;;;;10.17;100.00;101540.31;5254840;28;20420;-70
2022/09/23 06:22:29;;;;;;;10.00;7.57;;;;;;;10.20;100.00;101545.31;5254731;28;20461;-70
2022/09/23 06:25:00;;;;;;;13.95;7.35;;;;;;;10.21;100.00;101547.81;5241716;28;20017;-70
2022/09/23 06:27:31;;;;;;;12.88;7.40;;;;;;;10.30;100.00;101543.72;5246579;28;20025;-70
2022/09/23 06:30:05;;;;;;;8.48;7.30;;;;;;;10.32;100.00;101541.84;5243761;28;20995;-70
2022/09/23 06:32:36;;;;;;;10.70;7.35;;;;;;;10.37;100.00;101546.75;5247533;28;20275;-70
2022/09/23 06:35:08;;;;;;;10.75;7.30;;;;;;;10.40;100.00;101542.13;5250930;28;20107;-70
2022/09/23 06:37:39;;;;;;;8.82;7.00;;;;;;;10.48;100.00;101539.78;5244272;28;20036;-70
2022/09/23 06:40:12;;;;;;;10.77;7.72;;;;;;;10.51;100.00;101535.28;5253900;28;20028;-70
2022/09/23 06:42:44;;;;;;;11.75;7.03;;;;;;;10.56;100.00;101543.63;5243525;28;20067;-70
2022/09/23 06:45:15;;;;;;;11.05;6.70;;;;;;;10.61;100.00;101539.72;5252918;28;20120;-70
2022/09/23 06:47:49;;;;;;;9.20;7.45;;;;;;;10.65;100.00;101541.16;5249224;28;20386;-70
2022/09/23 06:50:22;;;;;;;11.45;7.57;;;;;;;10.69;100.00;101547.03;5255038;28;20060;-70
2022/09/23 06:52:55;;;;;;;9.52;7.22;;;;;;;10.79;100.00;101540.13;5245171;28;20112;-70
2022/09/23 06:55:26;;;;;;;9.30;6.78;;;;;;;10.84;100.00;101545.03;5230206;28;20084;-70
2022/09/23 06:57:58;;;;;;;13.95;8.05;;;;;;;10.86;100.00;101543.13;5245831;28;20103;-70
2022/09/23 07:00:29;;;;;;;10.00;7.30;;;;;;;10.83;100.00;101528.47;5246600;28;20033;-70
2022/09/23 07:03:04;;;;;;;11.32;7.38;;;;;;;10.86;100.00;101524.78;5244607;28;20508;-70
2022/09/23 07:05:37;;;;;;;10.27;7.63;;;;;;;11.00;100.00;101544.72;5244858;28;20090;-70
2022/09/23 07:08:08;;;;;;;10.20;7.72;;;;;;;11.10;100.00;101543.06;5249900;28;20082;-70
2022/09/23 07:10:39;;;;;;;12.45;7.25;;;;;;;11.15;100.00;101546.19;5249511;28;20501;-70
2022/09/23 07:13:11;;;;;;;12.80;7.88;;;;;;;11.19;100.00;101532.72;5252712;28;20025;-70
2022/09/23 07:15:51;;;;;;;11.07;7.50;;;;;;;11.34;100.00;101535.97;5234985;28;20033;-71
2022/09/23 07:18:24;;;;;;;9.82;7.53;;;;;;;11.30;100.00;101537.16;5249693;28;20459;-70
2022/09/23 07:20:56;;;;;;;;;;;;;;;11.87;100.00;101535.38;5250809;28;20436;-70
2022/09/23 07:23:28;;;;;;;7.95;6.90;;;;;;;11.52;100.00;101538.13;5244083;28;20066;-71
2022/09/23 07:26:03;;;;;;;12.20;8.25;;;;;;;11.66;100.00;101537.84;5245097;28;20095;-70
2022/09/23 07:28:35;;;;;;;10.07;7.30;;;;;;;11.66;100.00;101537.84;5243122;28;20024;-70
2022/09/23 07:31:09;;;;;;;10.63;8.00;;;;;;;11.76;100.00;101544.06;5250446;28;20025;-70
2022/09/23 07:33:44;;;;;;;11.07;7.05;;;;;;;11.79;100.00;101543.81;5243218;28;20036;-70
2022/09/23 07:36:17;;;;;;;9.82;7.03;;;;;;;11.86;100.00;101537.16;5247588;28;20072;-70
2022/09/23 07:38:49;;;;;;;;;;;;;;;12.45;100.00;101540.38;5252941;28;20394;-70
2022/09/23 07:41:20;;;;;;;9.18;6.95;;;;;;;12.06;100.00;101540.00;5248210;28;19920;-70
2022/09/23 07:43:55;;;;;;;9.18;6.68;;;;;;;12.11;100.00;101536.03;5249273;28;20025;-70
2022/09/23 07:46:30;;;;;;;9.68;6.88;;;;;;;12.22;100.00;101536.97;5248795;28;20037;-70
2022/09/23 07:49:02;;;;;;;11.13;7.10;;;;;;;12.28;100.00;101534.69;5245257;28;20426;-70
2022/09/23 07:51:35;;;;;;;12.73;6.95;;;;;;;12.41;100.00;101537.16;5248856;28;20424;-71
2022/09/23 07:54:10;;;;;;;14.98;7.40;;;;;;;12.60;100.00;101541.72;5252929;28;20422;-70
2022/09/23 07:56:42;;;;;;;13.82;7.00;;;;;;;12.62;100.00;101530.13;5251363;28;20025;-70
2022/09/23 07:59:17;;;;;;;13.60;7.10;;;;;;;12.69;100.00;101534.88;5253911;28;20036;-71
2022/09/23 08:01:51;;;;;;;11.65;7.20;;;;;;;12.82;100.00;101541.63;5253848;28;20398;-71
2022/09/23 08:04:27;;;;;;;11.75;7.32;;;;;;;12.93;100.00;101539.91;5251719;28;20060;-71
2022/09/23 08:07:01;;;;;;;8.80;7.20;;;;;;;13.02;100.00;101544.38;5252784;28;20484;-70
2022/09/23 08:09:40;;;;;;;11.15;7.28;;;;;;;13.08;100.00;101546.50;5242943;28;20120;-70
2022/09/23 08:12:15;;;;;;;12.73;7.43;;;;;;;13.10;100.00;101545.41;5252825;28;20021;-70
2022/09/23 08:14:46;;;;;;;12.75;6.95;;;;;;;13.15;100.00;101545.88;5246831;28;20040;-71
2022/09/23 08:17:17;;;;;;;10.63;6.78;;;;;;;13.26;100.00;101542.38;5248999;28;20474;-71
2022/09/23 08:19:49;;;;;;;8.73;6.47;;;;;;;13.28;100.00;101545.69;5247496;28;20454;-71
2022/09/23 08:22:20;;;;;;;8.38;6.60;;;;;;;13.35;100.00;101533.66;5247277;28;20532;-71
2022/09/23 08:24:51;;;;;;;11.43;6.32;;;;;;;13.49;100.00;101550.09;5250832;28;20033;-71
2022/09/23 08:27:22;;;;;;;11.15;6.72;;;;;;;13.58;100.00;101552.75;5253466;28;20013;-71
2022/09/23 08:29:54;;;;;;;13.07;7.55;;;;;;;13.68;100.00;101544.91;5254118;28;20036;-71
2022/09/23 08:32:25;;;;;;;8.90;5.82;;;;;;;13.70;100.00;101542.13;5250085;28;20068;-71
2022/09/23 08:34:56;;;;;;;11.48;6.30;;;;;;;13.85;100.00;101544.25;5252719;28;20025;-71
2022/09/23 08:37:28;;;;;;;8.10;6.13;;;;;;;13.97;100.00;101549.41;5251183;28;20029;-71
2022/09/23 08:39:59;;;;;;;9.48;6.75;;;;;;;14.03;100.00;101552.34;5245174;28;20032;-71
2022/09/23 08:42:42;;;;;;;9.65;6.50;;;;;;;14.25;100.00;101543.38;5236008;28;20059;-71
2022/09/23 08:45:20;;;;;;;;;;;;;;;14.72;100.00;101540.91;5247256;28;20059;-71
2022/09/23 08:48:11;;;;;;;7.65;5.63;;;;;;;14.49;100.00;101535.09;5247582;28;19913;-71
2022/09/23 08:50:49;;;;;;;9.30;5.55;;;;;;;14.59;100.00;101545.66;5242317;28;20029;-71
2022/09/23 08:53:27;;;;;;;8.05;6.28;;;;;;;14.70;100.00;101545.50;5250153;28;20117;-71
2022/09/23 08:56:04;;;;;;;7.28;5.50;;;;;;;14.82;100.00;101540.91;5247117;28;20094;-71
2022/09/23 08:58:48;;;;;;;8.48;6.13;;;;;;;14.89;100.00;101549.06;5252786;28;20163;-71
2022/09/23 09:01:44;;;;;;;7.70;5.85;;;;;;;15.16;100.00;101541.25;5247582;28;20029;-71
2022/09/23 09:04:34;;;;;;;8.40;5.40;;;;;;;15.30;100.00;101537.31;5241505;28;20084;-71
2022/09/23 09:07:05;;;;;;;6.88;4.88;;;;;;;15.30;100.00;101535.53;5244133;28;20025;-71
2022/09/23 09:09:44;;;;;;;7.00;5.10;;;;;;;15.49;100.00;101533.78;5244809;28;20032;-71
2022/09/23 09:12:18;;;;;;;8.75;5.10;;;;;;;15.58;100.00;101538.19;5249815;28;20294;-72
2022/09/23 09:15:11;;;;;;;9.25;5.28;;;;;;;15.78;100.00;101537.16;5250411;28;20077;-71
2022/09/23 09:17:57;;;;;;;6.80;5.18;;;;;;;15.79;100.00;101536.16;5222689;28;20406;-71
2022/09/23 09:20:47;;;;;;;8.68;4.68;;;;;;;16.06;100.00;101534.47;5247629;28;20481;-71
2022/09/23 09:23:39;;;;;;;6.35;4.38;;;;;;;16.09;100.00;101530.72;5248775;28;20041;-71
2022/09/23 09:26:20;;;;;;;7.55;4.47;;;;;;;16.12;98.01;101522.50;5249181;28;20120;-72
2022/09/23 09:29:12;;;;;;;9.23;4.93;;;;;;;16.34;100.00;101527.34;5238242;28;20108;-72
2022/09/23 09:31:46;;;;;;;7.35;4.75;;;;;;;16.26;96.38;101524.63;5244071;28;20026;-72
2022/09/23 09:34:27;;;;;;;6.65;4.50;;;;;;;16.46;95.46;101528.75;5241859;28;20371;-72
2022/09/23 09:37:10;;;;;;;7.88;4.75;;;;;;;16.62;92.51;101521.94;5238366;28;20049;-72
2022/09/23 09:39:41;;;;;;;6.88;4.63;;;;;;;16.63;86.82;101518.31;5248833;28;20498;-72
2022/09/23 09:42:23;;;;;;;7.68;4.35;;;;;;;16.74;92.06;101511.03;5252225;28;20021;-72
2022/09/23 09:45:01;;;;;;;5.70;3.90;;;;;;;16.95;88.90;101515.13;5251166;28;20025;-72
2022/09/23 09:47:47;;;;;;;6.75;4.05;;;;;;;17.10;93.57;101502.16;5246774;28;20029;-72
2022/09/23 09:50:42;;;;;;;6.32;3.85;;;;;;;17.38;86.10;101514.19;5249485;28;20095;-72
2022/09/23 09:53:22;;;;;;;6.13;3.95;;;;;;;17.40;83.99;101506.94;5226069;28;20032;-72
2022/09/23 09:56:15;;;;;;;5.10;3.95;;;;;;;17.66;84.84;101514.00;5254233;28;20773;-72
2022/09/23 09:58:52;;;;;;;6.63;3.55;;;;;;;17.56;79.91;101513.28;5251852;28;20134;-72
2022/09/23 10:01:29;;;;;;;4.97;3.45;;;;;;;17.60;77.48;101506.69;5256145;28;20025;-72
2022/09/23 10:04:18;;;;;;;4.25;3.38;;;;;;;17.75;80.35;101511.25;5249144;28;20053;-72
2022/09/23 10:07:05;;;;;;;6.07;3.55;;;;;;;17.93;77.36;101505.00;5250624;28;20478;-72
2022/09/23 10:09:38;;;;;;;6.53;3.90;;;;;;;17.82;75.83;101500.81;5251237;28;20155;-72
2022/09/23 10:12:14;;;;;;;;;;;;;;;18.40;77.86;101497.25;5256807;28;20037;-72
2022/09/23 10:14:50;;;;;;;5.70;3.60;;;;;;;17.97;76.78;101495.72;5252257;28;19923;-72
2022/09/23 10:17:33;;;;;;;10.75;5.03;;;;;;;18.11;73.34;101497.75;5248299;28;20036;-72
2022/09/23 10:20:08;;;;;;;7.40;4.10;;;;;;;18.11;70.90;101495.09;5243449;28;20028;-72
2022/09/23 10:22:42;;;;;;;8.10;4.50;;;;;;;18.14;68.26;101496.56;5247956;28;20546;-72
2022/09/23 10:25:23;;;;;;;7.10;4.47;;;;;;;18.31;70.60;101494.78;5256824;28;20052;-73
2022/09/23 10:27:54;;;;;;;7.28;4.13;;;;;;;18.31;69.67;101492.13;5243553;28;20039;-72
2022/09/23 10:30:27;;;;;;;7.55;4.40;;;;;;;18.32;68.83;101496.44;5253161;28;20425;-72
2022/09/23 10:32:58;;;;;;;10.30;4.65;;;;;;;18.35;66.40;101488.16;5251911;28;20044;-73
2022/09/23 10:35:32;;;;;;;6.55;3.85;;;;;;;18.40;66.01;101491.13;5243221;28;20113;-72
2022/09/23 10:38:03;;;;;;;7.47;3.80;;;;;;;18.40;65.10;101491.97;5244267;28;20110;-72
2022/09/23 10:47:08;;;;;;;;;;;;;;;19.30;67.23;101489.19;5251860;28;20040;-72
2022/09/23 10:49:56;;;;;;;5.80;3.80;;;;;;;18.83;66.35;101492.66;5252187;28;19913;-74
2022/09/23 10:52:34;;;;;;;6.93;4.35;;;;;;;18.82;66.94;101490.13;5249814;28;20036;-72
2022/09/23 10:55:26;;;;;;;6.45;3.83;;;;;;;19.09;66.55;101483.59;5254458;28;20511;-73
2022/09/23 10:58:21;;;;;;;6.00;4.20;;;;;;;19.22;67.37;101485.75;5255712;28;20407;-72
2022/09/23 11:00:59;;;;;;;8.05;4.80;;;;;;;19.06;68.43;101486.63;5253759;28;20201;-72
2022/09/23 11:03:57;;;;;;;9.43;5.10;;;;;;;19.34;65.73;101479.88;5253226;28;20068;-72
2022/09/23 11:07:06;;;;;;;10.18;5.38;;;;;;;19.33;63.45;101480.06;5253159;28;20033;-72
2022/09/23 11:10:04;;;;;;;7.85;5.25;;;;;;;19.36;64.80;101490.34;5252411;28;20053;-72
2022/09/23 11:12:40;;;;;;;7.80;4.55;;;;;;;19.24;63.72;101483.72;5255222;28;20036;-72
2022/09/23 11:15:52;;;;;;;8.73;4.65;;;;;;;19.55;63.53;101484.63;5253259;28;20474;-72
2022/09/23 11:18:37;;;;;;;7.03;4.50;;;;;;;19.37;61.94;101484.84;5242848;28;20431;-72
2022/09/23 11:21:43;;;;;;;7.13;4.60;;;;;;;19.49;59.48;101477.31;5254156;28;20393;-73
2022/09/23 11:24:46;;;;;;;8.93;4.50;;;;;;;19.44;60.70;101485.81;5252658;28;20359;-73
2022/09/23 11:27:36;;;;;;;11.45;4.78;;;;;;;19.62;61.53;101477.63;5253143;28;20068;-73
2022/09/23 11:30:19;;;;;;;10.25;4.57;;;;;;;19.48;56.28;101475.69;5252434;28;20040;-72
2022/09/23 11:33:15;;;;;;;6.97;4.40;;;;;;;19.77;60.23;101468.91;5252281;28;20062;-73
2022/09/23 11:36:14;;;;;;;7.40;3.85;;;;;;;19.57;56.89;101473.81;5255106;28;20067;-72
2022/09/23 11:38:48;;;;;;;5.90;4.10;;;;;;;19.52;57.12;101469.00;5250721;28;20442;-72
2022/09/23 11:41:25;;;;;;;7.65;4.07;;;;;;;19.60;56.38;101465.47;5253706;28;20024;-72
2022/09/23 11:44:40;;;;;;;8.85;3.90;;;;;;;19.81;56.68;101456.91;5252951;28;20029;-72
2022/09/23 11:47:25;;;;;;;5.93;3.42;;;;;;;19.84;58.90;101459.22;5236192;28;20537;-73
2022/09/23 11:50:05;;;;;;;5.65;2.78;;;;;;;19.80;54.63;101452.59;5253279;28;20094;-72
2022/09/23 11:52:44;;;;;;;5.43;3.10;;;;;;;19.80;53.28;101456.09;5254603;28;20024;-72
2022/09/23 11:55:21;;;;;;;5.53;2.63;;;;;;;19.80;52.56;101453.41;5253960;28;20488;-72
2022/09/23 11:57:58;;;;;;;5.30;2.47;;;;;;;19.96;55.15;101449.00;5254418;28;20029;-72
2022/09/23 12:00:34;;;;;;;4.50;2.80;;;;;;;20.01;52.52;101458.13;5249571;28;20079;-72
2022/09/23 12:03:17;;;;;;;3.75;2.17;;;;;;;20.05;50.76;101448.78;5254615;28;20470;-73
2022/09/23 12:06:04;;;;;;;5.78;2.60;;;;;;;20.17;52.90;101442.03;5228513;28;20037;-73
2022/09/23 12:08:36;;;;;;;7.38;2.65;;;;;;;19.82;50.32;101448.78;5251311;28;20470;-72
2022/09/23 12:11:29;;;;;;;4.30;2.17;;;;;;;20.10;52.68;101451.72;5253459;28;20029;-72
2022/09/23 12:14:25;;;;;;;7.28;2.25;;;;;;;20.04;53.07;101438.31;5251810;28;20386;-72